• Join FlightAware (Why Join?)
  • Login
  • US Flag 
03:44AM EDT


 

Airport Tracker/Info


-or-


 

Live Flight TrackerFlight Track Log ✈ DAL3721 ✈ 18-Oct-2013 ✈ KMSP - KCMH

Flight Track Log - Related Links

Times and Time Zones

All times are in EDT time to prevent confusion due to time zone crossing. See the DAL3721 flight status page for this flight to view local times or setup timezone preferences in your user account.

Time Position Orientation Groundspeed Altitude Reporting Facility
EDT Latitude Longitude Course Direction KTS MPH feet Rate Location/Type
08:40AM 44.9000 -93.2500 250° West 170 196 2,600  Level Minneapolis TRACON
08:41AM 44.8872 -93.2983 250° West 189 217 3,900 2,280 Climbing Minneapolis Center
08:42AM 44.8389 -93.3753 228° Southwest 272 313 6,600 2,340 Climbing Minneapolis Center
08:43AM 44.7606 -93.3911 188° South 289 333 8,800 2,340 Climbing Minneapolis Center
08:44AM 44.6831 -93.3719 170° South 305 351 11,500 2,040 Climbing Minneapolis Center
08:45AM 44.6419 -93.2622 118° Southeast 333 383 13,000 1,500 Climbing Minneapolis Center
08:46AM 44.5956 -93.1369 117° Southeast 369 425 14,600 1,680 Climbing Minneapolis Center
08:47AM 44.5381 -92.9806 117° Southeast 379 436 16,500 1,680 Climbing Minneapolis Center
08:48AM 44.4883 -92.8467 117° Southeast 389 448 18,100 1,320 Climbing Minneapolis Center
08:49AM 44.4375 -92.7128 118° Southeast 390 449 19,300 1,140 Climbing Minneapolis Center
08:50AM 44.3858 -92.5725 117° Southeast 404 465 20,500 1,020 Climbing Minneapolis Center
08:51AM 44.3325 -92.4314 118° Southeast 410 472 21,500 780 Climbing Minneapolis Center
08:52AM 44.2703 -92.2903 122° Southeast 424 488 22,100 720 Climbing Minneapolis Center
08:53AM 44.2089 -92.1472 121° Southeast 431 496 23,000 1,020 Climbing Minneapolis Center
08:54AM 44.1342 -91.9764 121° Southeast 432 497 24,200 1,020 Climbing Minneapolis Center
08:55AM 44.0733 -91.8336 121° Southeast 431 496 25,200 840 Climbing Minneapolis Center
08:56AM 44.0156 -91.6897 119° Southeast 428 493 26,000 600 Climbing Minneapolis Center
08:57AM 43.9597 -91.5606 121° Southeast 431 496 26,500 480 Climbing Minneapolis Center
08:58AM 43.8867 -91.3839 120° Southeast 438 504 27,100 540 Climbing Minneapolis Center
08:59AM 43.8239 -91.2361 120° Southeast 444 511 27,700 480 Climbing Minneapolis Center
09:00AM 43.7608 -91.0881 120° Southeast 446 513 28,100 420 Climbing Minneapolis Center
09:01AM 43.6964 -90.9372 121° Southeast 450 518 28,600 420 Climbing Minneapolis Center
09:02AM 43.6333 -90.7892 120° Southeast 451 519 29,000 180 Climbing Minneapolis Center
09:03AM 43.5675 -90.6392 121° Southeast 456 525 29,000  Level Chicago Center
09:04AM 43.4994 -90.4828 121° Southeast 470 541 29,000  Level Chicago Center
09:05AM 43.4311 -90.3239 121° Southeast 481 554 29,000  Level Chicago Center
09:06AM 43.3606 -90.1681 122° Southeast 484 557 29,000  Level Chicago Center
09:07AM 43.2903 -90.0067 121° Southeast 491 565 29,000  Level Chicago Center
09:08AM 43.2047 -89.8139 121° Southeast 496 571 29,000  Level Chicago Center
09:09AM 43.1336 -89.6525 121° Southeast 498 573 29,000  Level Chicago Center
09:10AM 43.0603 -89.4906 122° Southeast 502 578 29,000  Level Chicago Center
09:11AM 42.9869 -89.3283 122° Southeast 505 581 29,000  Level Chicago Center
09:12AM 42.9136 -89.1653 122° Southeast 507 583 29,000  Level Chicago Center
09:13AM 42.8389 -89.0022 122° Southeast 509 586 29,000  Level Chicago Center
09:14AM 42.7500 -88.8072 122° Southeast 510 587 29,000  Level Chicago Center
09:16AM 42.6747 -88.6444 122° Southeast 510 587 29,000  Level Chicago Center
09:17AM 42.5997 -88.4839 122° Southeast 509 586 29,000  Level Chicago Center
09:18AM 42.5244 -88.3222 122° Southeast 508 585 29,000  Level Chicago Center
09:19AM 42.4483 -88.1597 122° Southeast 513 590 29,000  Level Chicago Center
09:20AM 42.3567 -87.9656 123° Southeast 515 593 29,000  Level Chicago Center
09:21AM 42.2833 -87.8131 123° Southeast 513 590 29,000  Level Chicago Center
09:22AM 42.2056 -87.6503 123° Southeast 516 594 29,000  Level Chicago Center
09:23AM 42.1275 -87.4883 123° Southeast 515 593 29,000  Level Chicago Center
09:24AM 42.0339 -87.2928 123° Southeast 514 592 29,000  Level Chicago Center
09:25AM 41.9544 -87.1331 124° Southeast 514 592 29,000  Level Chicago Center
09:26AM 41.8769 -86.9722 123° Southeast 513 590 29,000  Level Chicago Center
09:27AM 41.7997 -86.8133 123° Southeast 510 587 29,000  Level Chicago Center
09:28AM 41.7136 -86.6403 124° Southeast 515 593 29,000  Level Chicago Center
09:29AM 41.6356 -86.4844 124° Southeast 509 586 29,000  Level Chicago Center
09:30AM 41.5569 -86.3278 124° Southeast 509 586 29,000  Level Chicago Center
09:31AM 41.4789 -86.1700 123° Southeast 513 590 29,000  Level Chicago Center
09:32AM 41.4006 -86.0161 124° Southeast 509 586 29,000  Level Chicago Center
09:33AM 41.3061 -85.8294 124° Southeast 512 589 29,000  Level Chicago Center
09:34AM 41.2264 -85.6744 124° Southeast 514 592 29,000 -360 Level Chicago Center
09:35AM 41.1483 -85.5231 124° Southeast 506 582 28,300 -840 Descending Chicago Center
09:36AM 41.0708 -85.3711 124° Southeast 503 579 27,300 -1,080 Descending Chicago Center
09:37AM 40.9792 -85.1922 124° Southeast 494 568 26,100 -1,080 Descending Chicago Center
09:38AM 40.9281 -85.0225 112° Southeast 496 571 25,100 -1,500 Descending Chicago Center
09:39AM 40.8756 -84.8542 112° Southeast 495 570 23,100 -1,020 Descending Chicago Center
09:40AM 40.8272 -84.6958 112° Southeast 468 539 23,000 -60 Descending Chicago Center
09:41AM 40.7950 -84.5861 111° Southeast 457 526 23,000  Level Indianapolis Center
09:42AM 40.7458 -84.4342 113° Southeast 451 519 23,000 -60 Level Indianapolis Center
09:43AM 40.6867 -84.2478 113° Southeast 459 528 22,900 -360 Descending Indianapolis Center
09:44AM 40.6372 -84.0900 112° Southeast 465 535 22,300 -780 Descending Indianapolis Center
09:45AM 40.5881 -83.9339 112° Southeast 462 532 21,300 -1,980 Descending Indianapolis Center
09:46AM 40.5383 -83.7794 113° Southeast 460 529 18,300 -2,880 Descending Indianapolis Center
09:47AM 40.4917 -83.6322 113° Southeast 445 512 15,400 -3,240 Descending Indianapolis Center
09:48AM 40.4600 -83.5394 114° Southeast 411 473 13,300 -3,000 Descending Indianapolis Center
09:48AM 40.4467 -83.4961 112° Southeast 418 481 12,300 -2,460 Descending Indianapolis Center
09:49AM 40.4233 -83.4231 113° Southeast 391 450 11,100 -1,380 Descending Indianapolis Center
09:49AM 40.3928 -83.3572 121° Southeast 342 394 10,900 -480 Descending Indianapolis Center
09:50AM 40.3686 -83.3150 127° Southeast 304 350 10,600 -780 Descending Indianapolis Center
09:50AM 40.3411 -83.2650 126° Southeast 313 360 10,100 -660 Descending Indianapolis Center
09:51AM 40.3203 -83.2300 128° Southeast 312 359 10,000 -120 Descending Indianapolis Center
09:51AM 40.2869 -83.1725 127° Southeast 317 365 10,000  Level Indianapolis Center
09:52AM 40.2589 -83.1267 129° Southeast 333 383 10,000 -120 Level Indianapolis Center
09:52AM 40.2281 -83.0758 128° Southeast 334 384 9,900 -840 Descending Indianapolis Center
09:53AM 40.2042 -83.0383 130° Southeast 317 365 9,200 -1,500 Descending Indianapolis Center
09:53AM 40.1778 -82.9894 125° Southeast 303 349 8,400 -1,620 Descending Indianapolis Center
09:54AM 40.1519 -82.9475 129° Southeast 278 320 7,600 -1,500 Descending Indianapolis Center
09:55AM 40.1311 -82.9086 125° Southeast 282 325 6,900 -1,500 Descending Indianapolis Center
09:55AM 40.0975 -82.8569 130° Southeast 268 308 5,800 -1,560 Descending Indianapolis Center
09:56AM 40.0847 -82.8322 124° Southeast 272 313 5,300 -1,500 Descending Indianapolis Center
09:56AM 40.0792 -82.7828 98° East 261 300 4,600 -1,260 Descending Indianapolis Center
09:57AM 40.0783 -82.7214 91° East 260 299 4,000 -600 Descending Indianapolis Center
09:57AM 40.0792 -82.6925 88° East 249 287 4,000 -240 Level Indianapolis Center
09:58AM 40.0692 -82.6392 104° East 249 287 3,800 -720 Descending Indianapolis Center
09:58AM 40.0511 -82.6336 167° South 212 244 3,300 -1,260 Descending Indianapolis Center
09:59AM 40.0111 -82.6369 184° South 219 252 2,500 -840 Descending Indianapolis Center
09:59AM 39.9953 -82.6467 205° Southwest 190 219 2,500  Level Indianapolis Center
10:00AM 39.9900 -82.7031 263° West 164 189 2,500  Level Indianapolis Center
10:01AM 39.9947 -82.7494 278° West 178 205 2,500 -120 Level Indianapolis Center
10:01AM 39.9956 -82.7778 272° West 180 207 2,400 -600 Descending Indianapolis Center
10:02AM 39.9983 -82.8103 276° West 173 199 1,900 -780 Descending Indianapolis Center
10:02AM 39.9975 -82.8244 266° West 163 188 1,700 -600 Descending Indianapolis Center
10:03AM 40.0003 -82.8589 276° West 146 168 1,300 -480 Descending Indianapolis Center